Celebrity Summit — 9HJC9 — position and weather

sailwx.info

Track history (hours):
 
Tides and Currents Weather Stations Pressure Air Temp Water Temp Dewpoint Dewpoint Depression Visibility Wind Speed Wind Dir Waves Ship Positions

Celebrity Summit

Last reported at 2017-Jun-22 10:00 UTC. Time now 2017-Jun-23 20:26 UTC.
Position N 33°42' W 065°06'.

Length 294 m; draft 8.3 m.

Type: Passenger vessel. MMSI: 249047000.

Wind from 250 at 24 knots

Visibility: greater than 5.4 NM

Date/timePositionNaut miles runAvg speedWind from/ knotsBaromVisibWave heightAir tempDewpointWater temp
2017-Jun-22 10:00N 33°42' W 065°06'7224.1 250 / 24 5.4
2017-Jun-22 07:00N 34°48' W 065°42'10615.1 260 / 261019.0 25.0
2017-Jun-22 00:00N 36°24' W 066°36'2612.9 230 / 281018.0 5.4 25.0
2017-Jun-21 22:00N 36°48' W 066°48'9218.4 250 / 30
2017-Jun-21 17:00N 38°12' W 067°36'9018.0 300 / 101019.0 20.0
2017-Jun-21 12:00N 39°36' W 068°18'2020.2 230 / 241017.0 2.2 17.0
2017-Jun-21 11:00N 39°54' W 068°30'8617.2 230 / 25
2017-Jun-21 06:00N 41°12' W 069°18'1813.3 230 / 321014.0 14.0
2017-Jun-21 04:40N 41°27' W 069°29'23 8.5
2017-Jun-21 02:00N 41°48' W 069°42'3022.4 230 / 281013.0 5.4 16.0
2017-Jun-21 00:39N 42°15' W 070°01'316.0
2017-Jun-21 00:27N 42°17' W 070°04'512.0
2017-Jun-21 00:00N 42°18' W 070°11'510.5
2017-Jun-20 23:30N 42°18' W 070°18'917.7
2017-Jun-20 23:01N 42°19' W 070°30'1122.2
2017-Jun-20 22:30N 42°21' W 070°45'715.0
2017-Jun-20 22:00N 42°22' W 070°55'5 9.4
2017-Jun-20 21:30N 42°20' W 071°01'1 1.8
2017-Jun-20 20:59N 42°21' W 071°02'0 0.0
2017-Jun-20 20:29N 42°21' W 071°02'0 0.0
2017-Jun-20 19:59N 42°21' W 071°02'0 0.0
2017-Jun-20 19:29N 42°21' W 071°02'0 0.0
2017-Jun-20 18:59N 42°21' W 071°02'0 0.0
2017-Jun-20 18:29N 42°21' W 071°02'0 0.0
2017-Jun-20 17:59N 42°21' W 071°02'0 0.0
2017-Jun-20 17:26N 42°21' W 071°02'0 0.0
2017-Jun-20 16:59N 42°21' W 071°02'0 0.0
2017-Jun-20 16:29N 42°21' W 071°02'0 0.0
2017-Jun-20 15:59N 42°21' W 071°02'0 0.0
2017-Jun-20 15:26N 42°21' W 071°02'0 0.0
2017-Jun-20 14:59N 42°21' W 071°02'0 0.0
2017-Jun-20 13:59N 42°21' W 071°02'0 0.0
2017-Jun-20 13:29N 42°21' W 071°02'0 0.0
2017-Jun-20 12:59N 42°21' W 071°02'0 0.0
2017-Jun-20 12:29N 42°21' W 071°02'0 0.0
2017-Jun-20 11:59N 42°21' W 071°02'0 0.6
2017-Jun-20 11:30N 42°21' W 071°01'2 3.0
2017-Jun-20 11:00N 42°20' W 070°60'5 9.5
2017-Jun-20 10:30N 42°23' W 070°54'510.9
2017-Jun-20 10:00N 42°24' W 070°47'5 9.3
2017-Jun-20 09:31N 42°23' W 070°41'5 9.3
2017-Jun-20 09:00N 42°22' W 070°35'5 9.8
2017-Jun-20 08:30N 42°21' W 070°28'5 9.2
2017-Jun-20 08:00N 42°21' W 070°22'5 9.5
2017-Jun-20 07:30N 42°21' W 070°15'510.0
2017-Jun-20 07:00N 42°20' W 070°09'510.3
2017-Jun-20 06:30N 42°19' W 070°02'5 9.4
2017-Jun-20 06:00N 42°16' W 069°58'51847.7
2017-Jun-20 06:00N 42°12' W 069°54'1 1.5 220 / 201011.0 17.0
2017-Jun-20 05:31N 42°12' W 069°55'4610.1
2017-Jun-20 01:00N 41°30' W 069°30'1515.0 230 / 211015.0 13.0
2017-Jun-20 00:00N 41°18' W 069°18'50 8.3 190 / 25
2017-Jun-19 18:00N 40°30' W 069°00'19 9.6 190 / 231017.0 20.0
2017-Jun-19 16:00N 40°24' W 069°24'37 9.1 200 / 25
2017-Jun-19 12:00N 40°24' W 070°12'4110.3 200 / 31
2017-Jun-19 08:00N 40°24' W 071°06'6911.5 140 / 301014.0 17.0
2017-Jun-19 02:00N 40°18' W 072°36'3210.7 230 / 291012.0 19.0 17.0
2017-Jun-18 23:00N 40°18' W 073°18'1718.9 200 / 33
2017-Jun-18 22:04N 40°25' W 073°39'111.5
2017-Jun-18 22:00N 40°26' W 073°40'611.3
2017-Jun-18 21:29N 40°27' W 073°47'612.6
2017-Jun-18 21:00N 40°29' W 073°55'815.1
2017-Jun-18 20:30N 40°34' W 074°02'611.6
2017-Jun-18 20:00N 40°40' W 074°04'0 0.1
2017-Jun-18 18:37N 40°40' W 074°04'0 0.0
2017-Jun-18 17:52N 40°40' W 074°04'0 0.0
2017-Jun-18 17:22N 40°40' W 074°04'0 0.0
2017-Jun-18 16:58N 40°40' W 074°04'0 0.0
2017-Jun-18 16:04N 40°40' W 074°04'0 0.0
2017-Jun-18 15:25N 40°40' W 074°04'0 0.0
2017-Jun-18 14:46N 40°40' W 074°04'0 0.0
2017-Jun-18 14:10N 40°40' W 074°04'0 0.0
2017-Jun-18 13:16N 40°40' W 074°04'0 0.0
2017-Jun-18 12:58N 40°40' W 074°04'0 0.0
2017-Jun-18 12:28N 40°40' W 074°04'0 0.0
2017-Jun-18 11:58N 40°40' W 074°04'0 0.1
2017-Jun-18 11:31N 40°40' W 074°04'2 3.1
2017-Jun-18 11:00N 40°38' W 074°03'713.7
2017-Jun-18 10:30N 40°32' W 074°01'816.9
2017-Jun-18 10:00N 40°28' W 073°51'12614.0
2017-Jun-18 01:00N 39°00' W 071°54'3416.8 180 / 181017.0 21.0
2017-Jun-17 23:00N 38°36' W 071°24'21916.9 210 / 16 5.4
2017-Jun-17 10:00N 35°54' W 068°18'19321.4 160 / 19 5.4
2017-Jun-17 01:00N 33°30' W 065°42'4321.3 090 / 141020.0 24.0
2017-Jun-16 23:00N 33°00' W 065°06'   080 / 11 5.4
2017-Jun-14 01:00N 33°18' W 065°24'19 9.6 180 1020.0 24.0
2017-Jun-13 23:00N 33°30' W 065°42'112 9.4 280 / 4 5.4
2017-Jun-13 11:00N 34°54' W 067°12'9610.7 250 / 7 5.4
2017-Jun-13 02:00N 36°06' W 068°30'2613.2 230 / 161021.0 23.0
2017-Jun-13 00:00N 36°24' W 068°54'15512.9 240 / 20 5.4
2017-Jun-12 12:00N 38°18' W 071°06'   240 / 22 5.4
Track history (hours):
 
Tides and Currents Weather Stations Pressure Air Temp Water Temp Dewpoint Dewpoint Depression Visibility Wind Speed Wind Dir Waves Ship Positions

Celebrity Summit

Last reported at 2017-Jun-22 10:00 UTC. Time now 2017-Jun-23 20:26 UTC.
Position N 33°42' W 065°06'.

Length 294 m; draft 8.3 m.

Type: Passenger vessel. MMSI: 249047000.

Wind from 250 at 24 knots

Visibility: greater than 5.4 NM

Date/timePositionNaut miles runAvg speedWind from/ knotsBaromVisibWave heightAir tempDewpointWater temp
2017-Jun-22 10:00N 33°42' W 065°06'7224.1 250 / 24 5.4
2017-Jun-22 07:00N 34°48' W 065°42'10615.1 260 / 261019.0 25.0
2017-Jun-22 00:00N 36°24' W 066°36'2612.9 230 / 281018.0 5.4 25.0
2017-Jun-21 22:00N 36°48' W 066°48'9218.4 250 / 30
2017-Jun-21 17:00N 38°12' W 067°36'9018.0 300 / 101019.0 20.0
2017-Jun-21 12:00N 39°36' W 068°18'2020.2 230 / 241017.0 2.2 17.0
2017-Jun-21 11:00N 39°54' W 068°30'8617.2 230 / 25
2017-Jun-21 06:00N 41°12' W 069°18'1813.3 230 / 321014.0 14.0
2017-Jun-21 04:40N 41°27' W 069°29'23 8.5
2017-Jun-21 02:00N 41°48' W 069°42'3022.4 230 / 281013.0 5.4 16.0
2017-Jun-21 00:39N 42°15' W 070°01'316.0
2017-Jun-21 00:27N 42°17' W 070°04'512.0
2017-Jun-21 00:00N 42°18' W 070°11'510.5
2017-Jun-20 23:30N 42°18' W 070°18'917.7
2017-Jun-20 23:01N 42°19' W 070°30'1122.2
2017-Jun-20 22:30N 42°21' W 070°45'715.0
2017-Jun-20 22:00N 42°22' W 070°55'5 9.4
2017-Jun-20 21:30N 42°20' W 071°01'1 1.8
2017-Jun-20 20:59N 42°21' W 071°02'0 0.0
2017-Jun-20 20:29N 42°21' W 071°02'0 0.0
2017-Jun-20 19:59N 42°21' W 071°02'0 0.0
2017-Jun-20 19:29N 42°21' W 071°02'0 0.0
2017-Jun-20 18:59N 42°21' W 071°02'0 0.0
2017-Jun-20 18:29N 42°21' W 071°02'0 0.0
2017-Jun-20 17:59N 42°21' W 071°02'0 0.0
2017-Jun-20 17:26N 42°21' W 071°02'0 0.0
2017-Jun-20 16:59N 42°21' W 071°02'0 0.0
2017-Jun-20 16:29N 42°21' W 071°02'0 0.0
2017-Jun-20 15:59N 42°21' W 071°02'0 0.0
2017-Jun-20 15:26N 42°21' W 071°02'0 0.0
2017-Jun-20 14:59N 42°21' W 071°02'0 0.0
2017-Jun-20 13:59N 42°21' W 071°02'0 0.0
2017-Jun-20 13:29N 42°21' W 071°02'0 0.0
2017-Jun-20 12:59N 42°21' W 071°02'0 0.0
2017-Jun-20 12:29N 42°21' W 071°02'0 0.0
2017-Jun-20 11:59N 42°21' W 071°02'0 0.6
2017-Jun-20 11:30N 42°21' W 071°01'2 3.0
2017-Jun-20 11:00N 42°20' W 070°60'5 9.5
2017-Jun-20 10:30N 42°23' W 070°54'510.9
2017-Jun-20 10:00N 42°24' W 070°47'5 9.3
2017-Jun-20 09:31N 42°23' W 070°41'5 9.3
2017-Jun-20 09:00N 42°22' W 070°35'5 9.8
2017-Jun-20 08:30N 42°21' W 070°28'5 9.2
2017-Jun-20 08:00N 42°21' W 070°22'5 9.5
2017-Jun-20 07:30N 42°21' W 070°15'510.0
2017-Jun-20 07:00N 42°20' W 070°09'510.3
2017-Jun-20 06:30N 42°19' W 070°02'5 9.4
2017-Jun-20 06:00N 42°16' W 069°58'51847.7
2017-Jun-20 06:00N 42°12' W 069°54'1 1.5 220 / 201011.0 17.0
2017-Jun-20 05:31N 42°12' W 069°55'4610.1
2017-Jun-20 01:00N 41°30' W 069°30'1515.0 230 / 211015.0 13.0
2017-Jun-20 00:00N 41°18' W 069°18'50 8.3 190 / 25
2017-Jun-19 18:00N 40°30' W 069°00'19 9.6 190 / 231017.0 20.0
2017-Jun-19 16:00N 40°24' W 069°24'37 9.1 200 / 25
2017-Jun-19 12:00N 40°24' W 070°12'4110.3 200 / 31
2017-Jun-19 08:00N 40°24' W 071°06'6911.5 140 / 301014.0 17.0
2017-Jun-19 02:00N 40°18' W 072°36'3210.7 230 / 291012.0 19.0 17.0
2017-Jun-18 23:00N 40°18' W 073°18'1718.9 200 / 33
2017-Jun-18 22:04N 40°25' W 073°39'111.5
2017-Jun-18 22:00N 40°26' W 073°40'611.3
2017-Jun-18 21:29N 40°27' W 073°47'612.6
2017-Jun-18 21:00N 40°29' W 073°55'815.1
2017-Jun-18 20:30N 40°34' W 074°02'611.6
2017-Jun-18 20:00N 40°40' W 074°04'0 0.1
2017-Jun-18 18:37N 40°40' W 074°04'0 0.0
2017-Jun-18 17:52N 40°40' W 074°04'0 0.0
2017-Jun-18 17:22N 40°40' W 074°04'0 0.0
2017-Jun-18 16:58N 40°40' W 074°04'0 0.0
2017-Jun-18 16:04N 40°40' W 074°04'0 0.0
2017-Jun-18 15:25N 40°40' W 074°04'0 0.0
2017-Jun-18 14:46N 40°40' W 074°04'0 0.0
2017-Jun-18 14:10N 40°40' W 074°04'0 0.0
2017-Jun-18 13:16N 40°40' W 074°04'0 0.0
2017-Jun-18 12:58N 40°40' W 074°04'0 0.0
2017-Jun-18 12:28N 40°40' W 074°04'0 0.0
2017-Jun-18 11:58N 40°40' W 074°04'0 0.1
2017-Jun-18 11:31N 40°40' W 074°04'2 3.1
2017-Jun-18 11:00N 40°38' W 074°03'713.7
2017-Jun-18 10:30N 40°32' W 074°01'816.9
2017-Jun-18 10:00N 40°28' W 073°51'12614.0
2017-Jun-18 01:00N 39°00' W 071°54'3416.8 180 / 181017.0 21.0
2017-Jun-17 23:00N 38°36' W 071°24'21916.9 210 / 16 5.4
2017-Jun-17 10:00N 35°54' W 068°18'19321.4 160 / 19 5.4
2017-Jun-17 01:00N 33°30' W 065°42'4321.3 090 / 141020.0 24.0
2017-Jun-16 23:00N 33°00' W 065°06'   080 / 11 5.4
2017-Jun-14 01:00N 33°18' W 065°24'19 9.6 180 1020.0 24.0
2017-Jun-13 23:00N 33°30' W 065°42'112 9.4 280 / 4 5.4
2017-Jun-13 11:00N 34°54' W 067°12'9610.7 250 / 7 5.4
2017-Jun-13 02:00N 36°06' W 068°30'2613.2 230 / 161021.0 23.0
2017-Jun-13 00:00N 36°24' W 068°54'15512.9 240 / 20 5.4
2017-Jun-12 12:00N 38°18' W 071°06'   240 / 22 5.4

Dump ship's entire track history